Time;durP1;ratioP1;P1;durP2;ratioP2;P2;SDS_P1;SDS_P2;PMS_P1;PMS_P2;Temp;Humidity;BMP_temperature;BMP_pressure;BME280_temperature;BME280_humidity;BME280_pressure;Samples;Min_cycle;Max_cycle;Signal;HPM_P1;HPM_P2
2022/08/08 00:00:28;;;;;;;5.63;4.37;;;;;;;18.90;81.44;100878.19;1743785;82;20897;-91
2022/08/08 00:03:04;;;;;;;6.50;4.30;;;;;;;18.89;81.51;100873.88;1775908;80;21137;-90
2022/08/08 00:06:17;;;;;;;5.22;4.65;;;;;;;18.87;81.59;100877.98;1744929;82;20919;-90
2022/08/08 00:08:59;;;;;;;10.32;4.92;;;;;;;18.87;81.53;100871.34;1774636;79;20896;-90
2022/08/08 00:11:42;;;;;;;6.85;4.53;;;;;;;18.84;81.34;100877.78;1775460;80;21361;-91
2022/08/08 00:14:27;;;;;;;7.30;4.60;;;;;;;18.82;81.47;100882.89;1743210;82;21458;-90
2022/08/08 00:17:09;;;;;;;6.28;5.05;;;;;;;18.79;81.59;100875.21;1743489;82;21484;-91
2022/08/08 00:19:49;;;;;;;5.42;4.87;;;;;;;18.76;81.51;100872.78;1753558;80;20899;-90
2022/08/08 00:22:27;;;;;;;5.22;4.72;;;;;;;18.76;81.74;100879.42;1774723;80;20861;-87
2022/08/08 00:25:02;;;;;;;6.15;4.62;;;;;;;18.72;81.53;100878.88;1744849;82;20907;-90
2022/08/08 00:27:30;;;;;;;10.32;4.72;;;;;;;18.70;81.62;100878.64;1775704;79;20932;-88
2022/08/08 00:30:04;;;;;;;8.45;4.87;;;;;;;18.66;81.68;100882.58;1743736;82;21170;-88
2022/08/08 00:32:58;;;;;;;6.08;4.87;;;;;;;18.62;81.77;100875.36;1775828;80;20876;-90
2022/08/08 00:35:31;;;;;;;8.43;5.75;;;;;;;18.59;81.76;100888.93;1743765;82;20866;-93
2022/08/08 00:38:14;;;;;;;9.60;6.50;;;;;;;18.53;81.83;100887.65;1776027;80;20864;-92
2022/08/08 00:41:06;;;;;;;8.20;5.58;;;;;;;18.49;81.95;100883.58;1743888;82;26599;-93
2022/08/08 00:43:50;;;;;;;7.08;4.83;;;;;;;18.45;81.87;100887.48;1776010;80;21095;-91
2022/08/08 00:46:48;;;;;;;5.90;5.10;;;;;;;18.40;82.17;100882.58;1776136;80;20825;-93
2022/08/08 00:49:52;;;;;;;6.87;6.08;;;;;;;18.36;82.45;100882.53;1755088;80;21304;-92
2022/08/08 00:52:43;;;;;;;8.98;5.28;;;;;;;18.33;82.76;100875.31;1743563;82;20929;-91
2022/08/08 00:55:18;;;;;;;11.50;5.83;;;;;;;18.29;82.83;100873.41;1743477;82;21464;-91
2022/08/08 00:58:18;;;;;;;10.72;5.60;;;;;;;18.25;82.97;100880.45;1743431;82;21146;-92
2022/08/08 01:01:16;;;;;;;12.28;6.40;;;;;;;18.20;82.92;100883.02;1742062;82;20963;-92
2022/08/08 01:04:02;;;;;;;11.73;6.37;;;;;;;18.17;83.05;100871.85;1775404;80;20881;-93
2022/08/08 01:07:16;;;;;;;7.67;6.00;;;;;;;18.13;83.02;100871.27;1744772;82;20931;-91
2022/08/08 01:10:02;;;;;;;5.83;5.33;;;;;;;18.12;83.17;100877.57;1775754;79;20829;-91
2022/08/08 01:12:56;;;;;;;7.62;6.22;;;;;;;18.09;83.08;100875.66;1775903;80;22828;-91
2022/08/08 01:15:57;;;;;;;8.13;5.47;;;;;;;18.07;83.16;100877.11;1775998;80;21178;-92
2022/08/08 01:18:50;;;;;;;7.83;5.42;;;;;;;18.05;83.00;100874.24;1744843;82;20975;-93
2022/08/08 01:21:34;;;;;;;;;;;;;;;18.01;83.10;100875.84;1745810;79;20871;-93
2022/08/08 01:24:33;;;;;;;7.35;6.20;;;;;;;17.98;83.21;100872.11;1775603;80;20122;-92
2022/08/08 01:27:05;;;;;;;10.03;6.10;;;;;;;17.96;83.09;100879.40;1733852;82;21134;-92
2022/08/08 01:30:01;;;;;;;8.45;5.65;;;;;;;17.93;82.88;100874.84;1775960;80;21458;-91
2022/08/08 01:33:21;;;;;;;8.68;6.10;;;;;;;17.90;82.94;100877.27;1722209;82;20928;-91
2022/08/08 01:36:08;;;;;;;11.75;5.78;;;;;;;17.87;82.96;100877.52;1776109;80;20873;-92
2022/08/08 01:39:07;;;;;;;9.05;6.08;;;;;;;17.83;83.00;100872.61;1686536;85;21077;-93
2022/08/08 01:41:51;;;;;;;12.18;5.35;;;;;;;17.77;83.17;100881.44;1720881;83;21215;-91
2022/08/08 01:44:50;;;;;;;;;;;;;;;17.75;83.55;100885.20;1722044;83;20955;-92
2022/08/08 01:47:42;;;;;;;7.70;6.20;;;;;;;17.72;83.64;100882.33;1756199;81;20110;-93
2022/08/08 01:50:36;;;;;;;7.03;6.33;;;;;;;17.70;83.64;100890.90;1696065;83;20908;-90
2022/08/08 01:53:34;;;;;;;7.60;6.73;;;;;;;17.68;83.74;100889.36;1756480;81;21007;-91
2022/08/08 01:56:39;;;;;;;7.87;6.33;;;;;;;17.66;83.47;100892.62;1751345;81;21148;-93
2022/08/08 01:59:14;;;;;;;10.40;6.58;;;;;;;17.62;83.47;100892.03;1720114;83;20897;-92
2022/08/08 02:02:05;;;;;;;11.45;6.95;;;;;;;17.58;83.31;100898.56;1754750;81;20956;-92
2022/08/08 02:04:45;;;;;;;7.67;6.10;;;;;;;17.54;83.75;100900.66;1713721;83;21789;-92
2022/08/08 02:07:58;;;;;;;11.12;6.50;;;;;;;17.53;83.68;100898.95;1683498;83;20955;-94
2022/08/08 02:10:45;;;;;;;8.20;5.95;;;;;;;17.51;83.61;100898.73;1668348;85;21298;-93
2022/08/08 02:13:37;;;;;;;8.53;6.33;;;;;;;17.48;83.75;100902.50;1675963;85;21009;-93
2022/08/08 02:16:34;;;;;;;8.20;6.12;;;;;;;17.46;83.72;100901.78;1697569;81;21486;-91
2022/08/08 02:19:23;;;;;;;7.60;5.80;;;;;;;17.43;83.67;100906.49;1725434;81;20987;-91
2022/08/08 02:22:31;;;;;;;9.40;5.85;;;;;;;17.39;83.67;100908.09;1784417;80;20896;-92
2022/08/08 02:25:21;;;;;;;6.10;5.47;;;;;;;17.37;83.88;100906.05;1784641;80;21232;-90
2022/08/08 02:28:06;;;;;;;7.80;5.70;;;;;;;17.37;84.14;100910.02;1707048;83;20921;-93
2022/08/08 02:31:06;;;;;;;7.60;6.17;;;;;;;17.37;84.17;100909.19;1707162;84;20945;-92
2022/08/08 02:33:57;;;;;;;8.75;5.62;;;;;;;17.37;84.20;100907.86;1661292;86;21033;-92
2022/08/08 02:36:42;;;;;;;7.65;5.92;;;;;;;17.37;84.39;100911.84;1707124;84;20949;-94
2022/08/08 02:39:41;;;;;;;8.20;5.50;;;;;;;17.38;84.23;100910.86;1707177;84;21237;-93
2022/08/08 02:42:54;;;;;;;6.78;5.22;;;;;;;17.37;83.99;100909.19;1706979;84;20909;-91
2022/08/08 02:45:57;;;;;;;9.18;6.95;;;;;;;17.37;83.98;100903.89;1707017;84;21007;-91
2022/08/08 02:49:00;;;;;;;12.80;9.10;;;;;;;17.35;83.97;100912.45;1707907;84;20964;-93
2022/08/08 02:52:12;;;;;;;13.10;8.13;;;;;;;17.33;83.77;100917.03;1661652;86;20958;-92
2022/08/08 02:55:09;;;;;;;10.98;7.97;;;;;;;17.29;83.65;100916.44;1706479;83;21154;-90
2022/08/08 02:58:23;;;;;;;12.50;8.13;;;;;;;17.25;83.64;100922.13;1661664;86;20927;-92
2022/08/08 03:01:18;;;;;;;8.10;6.70;;;;;;;17.22;83.60;100926.38;1707946;84;20897;-91
2022/08/08 03:04:13;;;;;;;7.45;6.22;;;;;;;17.20;83.75;100934.44;1784992;80;20888;-92
2022/08/08 03:07:19;;;;;;;8.03;6.00;;;;;;;17.20;84.06;100938.42;1784615;78;21484;-92
2022/08/08 03:10:39;;;;;;;8.20;6.08;;;;;;;17.19;84.27;100941.56;1784609;80;21245;-91
2022/08/08 03:13:41;;;;;;;6.60;5.97;;;;;;;17.20;84.50;100941.07;1784503;80;21346;-91
2022/08/08 03:16:41;;;;;;;8.55;5.83;;;;;;;17.20;84.66;100941.07;1784621;80;20903;-92
2022/08/08 03:19:51;;;;;;;6.35;5.42;;;;;;;17.20;84.50;100944.55;1784518;80;20922;-93
2022/08/08 03:22:19;;;;;;;10.20;6.60;;;;;;;17.22;84.46;100948.41;1735449;82;20963;-93
2022/08/08 03:24:46;;;;;;;9.53;6.30;;;;;;;17.25;84.52;100948.14;1735492;82;21421;-91
2022/08/08 03:27:20;;;;;;;12.58;7.25;;;;;;;17.30;84.72;100954.42;1735326;82;20933;-92
2022/08/08 03:29:52;;;;;;;7.00;5.33;;;;;;;17.35;84.56;100960.17;1735308;82;20901;-92
2022/08/08 03:35:06;;;;;;;11.05;5.65;;;;;;;17.43;84.17;100964.36;1735050;82;20900;-92
2022/08/08 03:37:34;;;;;;;9.18;5.92;;;;;;;17.47;83.87;100967.09;1735051;82;21271;-93
2022/08/08 03:40:03;;;;;;;6.62;4.97;;;;;;;17.52;84.00;100974.66;1734983;82;20940;-92
2022/08/08 03:42:31;;;;;;;7.87;5.35;;;;;;;17.58;84.11;100977.62;1735017;82;20960;-91
2022/08/08 03:44:58;;;;;;;6.35;5.75;;;;;;;17.65;83.88;100973.98;1734884;82;20958;-93
2022/08/08 03:47:26;;;;;;;8.63;5.65;;;;;;;17.71;83.67;100975.29;1697787;84;20865;-91
2022/08/08 03:49:54;;;;;;;6.90;5.33;;;;;;;17.75;83.73;100978.05;1680037;85;21138;-93
2022/08/08 03:52:20;;;;;;;11.80;6.53;;;;;;;17.81;83.79;100979.72;1688593;83;20901;-92
2022/08/08 03:54:47;;;;;;;11.03;6.67;;;;;;;17.86;83.54;100983.31;1729017;83;20897;-93
2022/08/08 03:57:15;;;;;;;9.08;6.40;;;;;;;17.92;83.04;100981.47;1753957;80;20979;-92
2022/08/08 03:59:42;;;;;;;7.22;6.55;;;;;;;17.98;82.58;100982.73;1784314;80;21436;-92
2022/08/08 04:02:18;;;;;;;10.95;7.12;;;;;;;18.07;82.46;100983.27;1784220;80;21142;-92
2022/08/08 04:04:45;;;;;;;8.48;6.42;;;;;;;18.15;82.61;100983.95;1783998;79;20962;-93
2022/08/08 04:07:12;;;;;;;9.43;6.72;;;;;;;18.23;82.56;100991.62;1784248;80;20908;-91
2022/08/08 04:09:39;;;;;;;9.43;7.15;;;;;;;18.33;82.43;100993.47;1784264;79;20880;-94
2022/08/08 04:12:06;;;;;;;8.00;7.28;;;;;;;18.42;82.32;100986.86;1784629;79;20903;-91
2022/08/08 04:14:36;;;;;;;10.08;6.53;;;;;;;18.50;82.22;100990.19;1783347;80;21328;-91
2022/08/08 04:19:23;;;;;;;16.20;6.80;;;;;;;18.73;81.71;100993.95;1799180;79;23173;-92
2022/08/08 04:21:50;;;;;;;12.90;6.33;;;;;;;18.77;81.54;100997.56;1759046;80;20991;-93
2022/08/08 04:24:17;;;;;;;14.58;6.03;;;;;;;18.88;81.31;100999.77;1744423;81;21241;-93
2022/08/08 04:26:43;;;;;;;16.52;6.58;;;;;;;18.98;81.24;101008.09;1759188;81;20989;-93
2022/08/08 04:29:10;;;;;;;9.83;6.05;;;;;;;19.13;80.88;101009.03;1759067;81;20947;-93
2022/08/08 04:31:38;;;;;;;8.88;6.47;;;;;;;19.29;80.69;101004.00;1759145;80;20944;-94
2022/08/08 04:34:04;;;;;;;9.88;5.92;;;;;;;19.49;80.00;101008.00;1765165;80;20841;-93
2022/08/08 04:36:33;;;;;;;11.55;5.60;;;;;;;19.73;79.74;101006.27;1759208;81;21253;-94
2022/08/08 04:38:59;;;;;;;8.03;5.70;;;;;;;20.10;78.86;101002.34;1759252;81;20892;-93
2022/08/08 04:41:26;;;;;;;10.98;5.10;;;;;;;20.60;76.97;101004.68;1758797;80;20896;-93
2022/08/08 04:43:52;;;;;;;5.85;4.80;;;;;;;21.04;74.35;101010.18;1758921;80;20944;-94
2022/08/08 04:46:19;;;;;;;11.15;4.40;;;;;;;21.38;72.28;101012.17;1759097;81;20975;-93
2022/08/08 04:48:47;;;;;;;8.18;5.05;;;;;;;21.61;70.68;101027.73;1758981;81;21249;-94
2022/08/08 04:51:14;;;;;;;4.75;4.25;;;;;;;21.77;69.93;101030.56;1759054;80;21385;-93
2022/08/08 04:53:41;;;;;;;9.90;5.50;;;;;;;21.90;69.08;101021.65;1725674;83;20868;-94
2022/08/08 04:56:08;;;;;;;7.55;6.08;;;;;;;22.03;68.90;101028.39;1725482;81;20983;-92
2022/08/08 04:58:36;;;;;;;7.20;4.20;;;;;;;22.17;68.55;101022.48;1725415;83;20967;-93
2022/08/08 05:01:03;;;;;;;7.00;4.17;;;;;;;22.35;68.29;101028.62;1725318;82;21247;-93
2022/08/08 05:03:32;;;;;;;10.45;5.17;;;;;;;22.53;67.54;101023.70;1726131;82;20896;-93
2022/08/08 05:05:59;;;;;;;6.10;5.30;;;;;;;22.69;67.21;101026.94;1725834;83;20907;-94
2022/08/08 05:08:25;;;;;;;7.45;4.37;;;;;;;22.94;66.86;101030.05;1725803;83;20891;-95
2022/08/08 05:10:53;;;;;;;6.33;3.77;;;;;;;23.25;66.14;101030.78;1726316;83;20904;-94
2022/08/08 05:13:20;;;;;;;5.87;4.08;;;;;;;23.72;65.11;101031.98;1725919;83;21161;-93
2022/08/08 05:15:47;;;;;;;15.10;3.98;;;;;;;24.31;63.71;101028.58;1726309;83;20942;-95
2022/08/08 05:18:14;;;;;;;5.85;4.62;;;;;;;25.00;61.96;101027.47;1722450;82;20844;-91
2022/08/08 05:20:41;;;;;;;9.90;5.22;;;;;;;25.76;59.88;101030.29;1718393;83;20947;-91
2022/08/08 05:23:08;;;;;;;8.33;3.85;;;;;;;26.55;57.95;101025.83;1718126;83;20935;-90
2022/08/08 05:25:34;;;;;;;12.60;4.72;;;;;;;27.34;55.70;101025.08;1717815;83;21136;-95
2022/08/08 05:28:01;;;;;;;10.93;3.70;;;;;;;28.05;53.96;101029.10;1699520;83;21421;-91
2022/08/08 05:30:27;;;;;;;11.25;3.47;;;;;;;28.74;51.81;101027.42;1717718;83;20896;-92
2022/08/08 05:32:54;;;;;;;7.10;3.20;;;;;;;29.29;49.78;101023.34;1717941;82;21027;-91
2022/08/08 05:35:22;;;;;;;6.87;3.80;;;;;;;29.73;48.35;101030.05;1717839;83;20983;-93
2022/08/08 05:38:00;;;;;;;5.20;2.70;;;;;;;30.10;47.24;101029.91;1717278;83;21136;-93
2022/08/08 05:40:33;;;;;;;5.00;2.85;;;;;;;30.50;46.31;101027.61;1753314;80;20853;-92
2022/08/08 05:43:05;;;;;;;8.53;2.77;;;;;;;30.96;45.06;101016.59;1753573;79;21331;-93
2022/08/08 05:45:36;;;;;;;7.35;2.75;;;;;;;31.42;44.06;101022.80;1754212;81;20955;-92
2022/08/08 05:48:03;;;;;;;4.75;2.70;;;;;;;31.78;42.60;101022.59;1753399;81;20881;-95
2022/08/08 05:50:31;;;;;;;7.37;3.00;;;;;;;32.15;41.71;101021.30;1753632;82;21162;-91
2022/08/08 05:52:58;;;;;;;6.42;3.15;;;;;;;32.42;40.91;101024.03;1717651;83;20939;-93
2022/08/08 05:55:26;;;;;;;7.40;3.65;;;;;;;32.67;39.87;101026.38;1717716;83;21006;-89
2022/08/08 05:57:52;;;;;;;4.53;3.77;;;;;;;32.83;39.62;101018.94;1690932;83;20936;-92
2022/08/08 06:00:19;;;;;;;6.10;3.02;;;;;;;33.04;39.62;101020.33;1719537;80;20968;-90
2022/08/08 06:05:35;;;;;;;4.20;3.80;;;;;;;33.54;37.73;101019.97;1719321;80;20883;-92
2022/08/08 06:08:02;;;;;;;9.08;3.77;;;;;;;33.54;37.40;101016.43;1719729;80;21087;-93
2022/08/08 06:10:31;;;;;;;7.12;4.03;;;;;;;33.61;36.97;101014.45;1720036;83;20916;-92
2022/08/08 06:12:59;;;;;;;6.62;3.70;;;;;;;33.75;36.94;101021.84;1719758;80;20920;-93
2022/08/08 06:15:26;;;;;;;5.62;4.28;;;;;;;33.88;36.30;101022.14;1719401;80;21060;-91
2022/08/08 06:17:54;;;;;;;7.28;3.95;;;;;;;34.18;35.42;101017.41;1719649;80;20999;-92
2022/08/08 06:20:21;;;;;;;6.78;3.40;;;;;;;34.40;34.92;101025.77;1719794;81;20990;-93
2022/08/08 06:22:49;;;;;;;7.15;3.80;;;;;;;34.56;34.77;101021.46;1691220;82;20927;-93
2022/08/08 06:25:17;;;;;;;7.37;3.40;;;;;;;34.75;34.17;101021.30;1738279;79;20995;-93
2022/08/08 06:27:53;;;;;;;3.65;2.98;;;;;;;34.92;33.86;101025.44;1755387;79;21097;-95
2022/08/08 06:30:21;;;;;;;4.33;3.52;;;;;;;35.08;33.96;101020.55;1762151;79;20995;-94
2022/08/08 06:32:53;;;;;;;5.90;2.95;;;;;;;35.33;33.89;101022.94;1755575;79;20987;-94
2022/08/08 06:35:25;;;;;;;8.00;2.55;;;;;;;35.46;33.26;101023.97;1754507;79;20908;-93
2022/08/08 06:38:03;;;;;;;5.15;2.92;;;;;;;35.57;32.65;101024.11;1738794;79;20952;-94
2022/08/08 06:40:32;;;;;;;6.33;3.02;;;;;;;35.69;32.87;101030.35;1715152;81;21301;-93
2022/08/08 06:43:06;;;;;;;4.53;2.70;;;;;;;35.77;32.85;101032.64;1719871;80;20821;-94
2022/08/08 06:45:38;;;;;;;6.83;3.20;;;;;;;35.96;32.74;101031.84;1718899;80;20956;-93
2022/08/08 06:48:06;;;;;;;3.27;2.43;;;;;;;36.25;32.75;101033.08;1737342;79;21050;-94
2022/08/08 06:50:38;;;;;;;8.85;3.83;;;;;;;36.49;32.33;101030.92;1719335;80;20911;-92
2022/08/08 06:53:10;;;;;;;3.12;2.92;;;;;;;36.61;32.31;101029.44;1719647;80;21326;-93
2022/08/08 06:55:38;;;;;;;8.65;3.42;;;;;;;36.77;32.28;101022.22;1719368;80;21209;-94
2022/08/08 06:58:08;;;;;;;6.05;2.95;;;;;;;36.91;31.81;101018.02;1717518;80;20828;-91
2022/08/08 07:00:38;;;;;;;3.83;2.85;;;;;;;36.96;31.60;101024.89;1702990;83;20943;-95
2022/08/08 07:03:11;;;;;;;6.58;3.27;;;;;;;37.07;32.27;101017.61;1728878;83;20959;-94
2022/08/08 07:05:39;;;;;;;11.85;3.30;;;;;;;37.26;30.72;101016.70;1729356;83;21325;-95
2022/08/08 07:08:24;;;;;;;7.25;3.10;;;;;;;37.32;31.03;101014.30;1702190;83;21373;-95
2022/08/08 07:10:51;;;;;;;8.78;2.92;;;;;;;37.49;30.91;101011.42;1728353;83;20949;-93
2022/08/08 07:13:18;;;;;;;6.20;2.92;;;;;;;37.68;30.69;101010.48;1728288;82;21076;-94
2022/08/08 07:16:22;;;;;;;3.25;2.72;;;;;;;37.82;30.82;101017.67;1728165;82;20927;-93
2022/08/08 07:19:06;;;;;;;4.78;2.22;;;;;;;37.86;30.66;101020.98;1706150;83;22196;-93
2022/08/08 07:21:58;;;;;;;6.22;3.45;;;;;;;38.04;30.18;101019.77;1728535;81;21014;-94
2022/08/08 07:24:33;;;;;;;11.88;2.90;;;;;;;38.23;29.39;101015.19;1719621;82;21014;-93
2022/08/08 07:27:02;;;;;;;3.45;2.60;;;;;;;38.51;28.65;101013.41;1727924;81;20884;-93
2022/08/08 07:29:29;;;;;;;6.87;2.95;;;;;;;38.87;28.50;101012.66;1728352;83;20904;-93
2022/08/08 07:31:56;;;;;;;7.97;2.95;;;;;;;39.21;28.31;101016.28;1728172;83;21120;-93
2022/08/08 07:34:22;;;;;;;5.50;3.08;;;;;;;39.44;28.30;101012.16;1728552;83;21378;-92
2022/08/08 07:36:49;;;;;;;5.75;2.87;;;;;;;39.69;27.83;101019.53;1728684;83;20932;-93
2022/08/08 07:39:18;;;;;;;5.97;2.87;;;;;;;39.86;27.55;101017.33;1728489;81;20947;-93
2022/08/08 07:41:45;;;;;;;4.55;2.42;;;;;;;40.11;27.42;101020.56;1728785;83;21029;-92
2022/08/08 07:44:12;;;;;;;9.25;3.33;;;;;;;40.38;27.01;101027.06;1729168;81;21204;-94
2022/08/08 07:46:39;;;;;;;3.33;2.42;;;;;;;40.58;25.82;101023.38;1726901;82;20894;-93
2022/08/08 07:49:07;;;;;;;6.35;2.62;;;;;;;40.65;25.77;101015.38;1727645;83;21460;-92
2022/08/08 07:51:35;;;;;;;5.65;3.42;;;;;;;40.72;25.25;101020.84;1727486;81;21421;-94
2022/08/08 07:54:44;;;;;;;4.62;2.90;;;;;;;40.73;25.61;101019.73;1727605;83;20937;-96
2022/08/08 07:57:46;;;;;;;4.40;2.45;;;;;;;40.83;25.82;101024.36;1701207;83;21401;-95
2022/08/08 08:00:15;;;;;;;4.03;3.00;;;;;;;41.13;25.99;101017.81;1727769;81;20923;-93
2022/08/08 08:02:54;;;;;;;4.35;2.62;;;;;;;41.36;25.26;101016.81;1728079;83;20924;-92
2022/08/08 08:05:27;;;;;;;11.85;3.77;;;;;;;41.46;24.87;101020.83;1728497;83;20888;-95
2022/08/08 08:08:03;;;;;;;4.35;2.25;;;;;;;41.59;25.13;101009.16;1728218;82;20892;-94
2022/08/08 08:10:31;;;;;;;3.72;2.70;;;;;;;41.70;24.55;101015.39;1728171;83;21079;-93
2022/08/08 08:13:19;;;;;;;2.87;2.20;;;;;;;41.88;24.93;101012.44;1728158;83;20915;-94
2022/08/08 08:15:32;;;;;;;4.45;2.40;;;;;;;41.95;24.58;101017.03;1725530;83;20911;-91
2022/08/08 08:18:00;;;;;;;4.85;2.80;;;;;;;42.01;24.26;101017.27;1728359;83;20956;-93
2022/08/08 08:20:28;;;;;;;5.37;2.20;;;;;;;41.99;24.25;101013.98;1727801;83;21020;-92
2022/08/08 08:22:55;;;;;;;5.30;2.60;;;;;;;42.07;24.45;101015.81;1728138;83;21244;-94
2022/08/08 08:25:24;;;;;;;4.65;2.80;;;;;;;42.02;23.99;101013.41;1728714;83;20899;-94
2022/08/08 08:27:50;;;;;;;5.25;2.27;;;;;;;42.09;24.31;101010.84;1728357;83;20916;-94
2022/08/08 08:30:19;;;;;;;4.12;2.05;;;;;;;42.21;23.52;101011.24;1728078;81;20951;-93
2022/08/08 08:32:46;;;;;;;3.15;2.42;;;;;;;42.24;23.26;101016.16;1727449;83;20947;-93
2022/08/08 08:35:13;;;;;;;5.15;2.17;;;;;;;42.32;23.69;101007.23;1727609;83;21277;-95
2022/08/08 08:37:40;;;;;;;7.47;2.00;;;;;;;42.37;23.04;101010.48;1675949;83;20927;-94
2022/08/08 08:40:08;;;;;;;9.08;2.40;;;;;;;42.43;22.96;101015.66;1727680;83;21412;-94
2022/08/08 08:42:35;;;;;;;5.95;2.52;;;;;;;42.55;22.84;101015.77;1727372;83;21425;-92
2022/08/08 08:45:06;;;;;;;4.70;2.10;;;;;;;42.72;23.02;101015.25;1727939;83;20844;-94
2022/08/08 08:47:34;;;;;;;4.05;2.33;;;;;;;42.84;22.37;101012.30;1727783;83;21188;-95
2022/08/08 08:50:00;;;;;;;3.67;2.55;;;;;;;42.95;22.19;101003.88;1699083;83;20983;-92
2022/08/08 08:52:27;;;;;;;5.10;2.27;;;;;;;42.95;22.38;101010.77;1728096;83;20986;-92
2022/08/08 08:54:56;;;;;;;5.53;2.85;;;;;;;42.89;22.28;101003.16;1728137;83;21003;-93
2022/08/08 08:57:23;;;;;;;3.58;2.35;;;;;;;42.99;23.63;101007.67;1728414;83;20848;-91
2022/08/08 08:59:51;;;;;;;2.40;1.95;;;;;;;43.07;22.74;101011.14;1728204;81;21251;-92
2022/08/08 09:02:20;;;;;;;4.22;2.50;;;;;;;43.11;21.98;101010.77;1738315;82;20895;-94
2022/08/08 09:04:48;;;;;;;6.42;2.30;;;;;;;43.17;22.05;101011.52;1738251;82;20962;-93
2022/08/08 09:07:19;;;;;;;4.20;2.50;;;;;;;43.17;21.56;101010.94;1738082;82;21015;-96
2022/08/08 09:09:49;;;;;;;3.27;2.33;;;;;;;43.11;22.10;101003.86;1738346;82;21380;-94
2022/08/08 09:12:19;;;;;;;2.63;2.43;;;;;;;43.11;21.73;101012.14;1738455;82;21140;-94
2022/08/08 09:14:46;;;;;;;4.42;2.40;;;;;;;43.08;21.74;101010.00;1738232;82;21025;-92
2022/08/08 09:17:13;;;;;;;7.17;3.22;;;;;;;43.10;22.08;101005.00;1740223;81;20959;-93
2022/08/08 09:19:42;;;;;;;4.37;2.50;;;;;;;43.19;22.50;101005.94;1739991;80;21092;-94
2022/08/08 09:22:09;;;;;;;4.92;2.98;;;;;;;43.29;22.11;101003.61;1740132;80;20959;-94
2022/08/08 09:24:36;;;;;;;7.22;3.08;;;;;;;43.36;22.32;101007.33;1710991;82;21193;-93
2022/08/08 09:27:07;;;;;;;5.83;2.52;;;;;;;43.31;22.04;101007.43;1740029;80;20997;-92
2022/08/08 09:29:46;;;;;;;6.55;2.83;;;;;;;43.28;21.75;101003.91;1740217;81;21154;-94
2022/08/08 09:32:16;;;;;;;5.28;2.60;;;;;;;43.28;21.19;101006.66;1739671;81;20994;-93
2022/08/08 09:34:49;;;;;;;2.62;2.17;;;;;;;43.28;21.62;101003.34;1739934;81;20884;-94
2022/08/08 09:37:18;;;;;;;2.67;2.27;;;;;;;43.28;20.98;101005.28;1736370;82;21275;-94
2022/08/08 09:40:05;;;;;;;3.05;2.00;;;;;;;43.33;20.75;101001.86;1740462;80;21152;-96
2022/08/08 09:42:35;;;;;;;3.22;2.27;;;;;;;43.39;21.66;101005.36;1739726;81;20935;-93
2022/08/08 09:45:06;;;;;;;6.30;2.40;;;;;;;43.51;20.85;101003.47;1739763;82;20994;-94
2022/08/08 09:47:41;;;;;;;7.45;2.65;;;;;;;43.52;20.24;100999.60;1740273;81;20911;-94
2022/08/08 09:50:17;;;;;;;2.17;1.98;;;;;;;43.50;20.79;100995.76;1740201;80;21164;-93
2022/08/08 09:52:49;;;;;;;4.53;2.00;;;;;;;43.58;20.16;100996.44;1739172;81;21022;-93
2022/08/08 09:55:17;;;;;;;3.05;2.08;;;;;;;43.58;20.57;100986.77;1740331;80;20930;-93
2022/08/08 09:57:47;;;;;;;5.35;2.25;;;;;;;43.73;20.75;100993.14;1740512;81;20855;-96
2022/08/08 10:00:17;;;;;;;2.83;2.02;;;;;;;43.81;20.95;100990.48;1734842;80;20967;-94
2022/08/08 10:02:51;;;;;;;4.67;2.10;;;;;;;43.89;20.42;100993.07;1730088;82;21278;-94
2022/08/08 10:05:23;;;;;;;6.80;1.98;;;;;;;44.01;19.77;100995.33;1730456;82;21010;-95
2022/08/08 10:07:55;;;;;;;4.55;1.92;;;;;;;43.95;19.86;100989.08;1730442;82;20923;-94
2022/08/08 10:10:42;;;;;;;3.67;1.65;;;;;;;43.98;19.78;100989.86;1730543;82;21194;-95
2022/08/08 10:13:27;;;;;;;2.85;1.52;;;;;;;44.10;19.53;100991.31;1730334;81;20975;-96
2022/08/08 10:18:35;;;;;;;5.70;2.20;;;;;;;44.12;18.35;100985.72;1695562;84;21023;-96
2022/08/08 10:21:08;;;;;;;4.85;1.98;;;;;;;44.11;18.09;100982.69;1695314;83;20953;-95
2022/08/08 10:23:43;;;;;;;0.82;0.80;;;;;;;44.14;17.79;100975.74;1695473;84;20932;-95
2022/08/08 10:26:27;;;;;;;5.50;1.30;;;;;;;44.20;16.71;100982.77;1694906;84;20846;-95
2022/08/08 10:29:04;;;;;;;5.45;1.45;;;;;;;44.22;16.91;100978.56;1697891;84;21100;-93
2022/08/08 10:34:23;;;;;;;4.95;1.10;;;;;;;44.22;16.92;100972.22;1693915;84;20877;-93
2022/08/08 10:36:52;;;;;;;;;;;;;;;44.14;17.25;100977.94;1695952;84;20944;-95
2022/08/08 10:39:23;;;;;;;5.00;1.55;;;;;;;44.03;16.76;100970.42;1694059;84;20103;-96
2022/08/08 10:41:59;;;;;;;3.15;1.35;;;;;;;43.86;17.15;100978.50;1694048;84;21462;-93
2022/08/08 10:44:31;;;;;;;4.72;1.57;;;;;;;43.83;17.94;100972.22;1693702;84;21422;-95
2022/08/08 10:47:12;;;;;;;4.97;1.72;;;;;;;43.87;18.09;100963.57;1692781;83;20883;-94
2022/08/08 10:49:40;;;;;;;;;;;;;;;44.05;17.65;100972.32;1695422;84;21315;-94
2022/08/08 10:52:07;;;;;;;2.40;1.25;;;;;;;44.08;17.46;100970.88;1693140;84;20076;-91
2022/08/08 10:54:34;;;;;;;2.27;1.42;;;;;;;43.90;17.58;100967.09;1692825;84;21152;-95
2022/08/08 10:57:07;;;;;;;4.60;2.47;;;;;;;43.85;17.55;100961.67;1693436;84;20972;-94
2022/08/08 10:59:31;;;;;;;2.42;1.45;;;;;;;43.90;17.81;100968.47;1691709;84;20877;-94
2022/08/08 11:01:58;;;;;;;4.62;1.60;;;;;;;43.97;17.75;100963.91;1692631;84;20901;-95
2022/08/08 11:04:24;;;;;;;3.40;1.27;;;;;;;43.94;17.58;100955.67;1692945;84;21445;-95
2022/08/08 11:06:59;;;;;;;5.87;1.80;;;;;;;43.88;17.76;100962.43;1669397;84;21854;-94
2022/08/08 11:09:28;;;;;;;8.53;1.92;;;;;;;43.90;18.58;100954.65;1692994;84;20858;-93
2022/08/08 11:11:57;;;;;;;2.80;1.30;;;;;;;43.83;17.92;100961.97;1693727;84;20965;-95
2022/08/08 11:14:24;;;;;;;6.00;1.60;;;;;;;43.78;18.14;100956.56;1693100;84;21457;-94
2022/08/08 11:16:52;;;;;;;4.45;1.60;;;;;;;43.78;17.37;100956.56;1686485;84;20942;-91
2022/08/08 11:19:18;;;;;;;3.62;1.07;;;;;;;43.74;16.65;100956.92;1660307;85;21270;-93
2022/08/08 11:21:45;;;;;;;6.62;2.10;;;;;;;43.60;16.28;100954.14;1660982;86;21061;-91
2022/08/08 11:24:12;;;;;;;4.55;1.10;;;;;;;43.46;15.40;100958.81;1660872;86;21690;-91
2022/08/08 11:26:44;;;;;;;2.02;1.02;;;;;;;43.35;16.08;100953.23;1660222;86;20888;-93
2022/08/08 11:29:08;;;;;;;3.08;1.20;;;;;;;43.21;15.79;100951.81;1659259;85;21496;-93
2022/08/08 11:31:39;;;;;;;2.08;0.95;;;;;;;43.05;15.94;100956.80;1660236;85;21217;-93
2022/08/08 11:34:06;;;;;;;6.03;0.90;;;;;;;42.94;16.60;100954.77;1659281;86;20971;-93
2022/08/08 11:36:36;;;;;;;1.62;1.00;;;;;;;42.82;16.45;100955.25;1659995;86;20910;-93
2022/08/08 11:39:04;;;;;;;2.92;1.30;;;;;;;42.69;16.56;100955.14;1659947;86;21026;-95
2022/08/08 11:41:31;;;;;;;2.05;0.80;;;;;;;42.57;16.71;100957.80;1660032;86;20903;-94
2022/08/08 11:43:58;;;;;;;2.47;1.07;;;;;;;42.45;16.48;100953.31;1660688;86;21321;-91
2022/08/08 11:46:27;;;;;;;252.05;229.78;;;;;;;42.24;16.80;100947.23;1659951;85;20993;-91
2022/08/08 11:48:53;;;;;;;11.50;9.90;;;;;;;41.99;16.75;100949.78;1659947;86;20998;-91
2022/08/08 11:51:22;;;;;;;20.23;18.30;;;;;;;41.77;17.05;100943.42;1659789;86;20983;-94
2022/08/08 11:53:49;;;;;;;156.12;142.57;;;;;;;41.56;17.15;100944.23;1660082;86;20951;-95
2022/08/08 11:56:21;;;;;;;5.47;3.80;;;;;;;41.29;17.80;100944.20;1636200;86;21147;-94
2022/08/08 11:58:48;;;;;;;4.58;4.15;;;;;;;40.99;18.04;100943.89;1659727;85;20888;-91
2022/08/08 12:01:15;;;;;;;6.08;3.55;;;;;;;40.64;18.03;100945.78;1659571;86;20995;-93
2022/08/08 12:03:46;;;;;;;4.90;1.47;;;;;;;40.33;18.14;100943.80;1660049;86;20967;-93
2022/08/08 12:06:14;;;;;;;4.17;1.60;;;;;;;39.99;18.96;100948.62;1660298;86;21444;-95
2022/08/08 12:08:42;;;;;;;5.00;3.02;;;;;;;39.71;19.08;100939.91;1660347;85;21212;-95
2022/08/08 12:11:17;;;;;;;9.13;4.47;;;;;;;39.45;19.65;100941.09;1659929;86;20895;-94
2022/08/08 12:13:45;;;;;;;4.97;2.25;;;;;;;39.15;19.87;100942.20;1660053;85;20903;-92
2022/08/08 12:16:17;;;;;;;37.53;34.53;;;;;;;38.85;19.86;100940.25;1659921;86;21404;-93